sensor_id;sensor_type;location;lat;lon;timestamp;temperature;humidity
36716;DHT22;22699;51.034;3.730;2023-08-01T00:00:11;17.90;99.90
36716;DHT22;22699;51.034;3.730;2023-08-01T00:02:49;18.00;99.90
36716;DHT22;22699;51.034;3.730;2023-08-01T00:08:30;18.20;99.90
36716;DHT22;22699;51.034;3.730;2023-08-01T00:10:57;18.10;99.90
36716;DHT22;22699;51.034;3.730;2023-08-01T00:13:32;18.00;99.90
36716;DHT22;22699;51.034;3.730;2023-08-01T00:16:26;18.00;99.90
36716;DHT22;22699;51.034;3.730;2023-08-01T00:18:56;18.00;99.90
36716;DHT22;22699;51.034;3.730;2023-08-01T00:21:23;18.00;99.90
36716;DHT22;22699;51.034;3.730;2023-08-01T00:23:56;18.10;99.90
36716;DHT22;22699;51.034;3.730;2023-08-01T00:26:31;17.90;99.90
36716;DHT22;22699;51.034;3.730;2023-08-01T00:29:02;17.90;99.90
36716;DHT22;22699;51.034;3.730;2023-08-01T00:31:30;17.80;99.90
36716;DHT22;22699;51.034;3.730;2023-08-01T00:33:58;17.70;99.90
36716;DHT22;22699;51.034;3.730;2023-08-01T00:36:24;17.70;99.90
36716;DHT22;22699;51.034;3.730;2023-08-01T00:38:50;17.80;99.90
36716;DHT22;22699;51.034;3.730;2023-08-01T00:41:18;17.70;99.90
36716;DHT22;22699;51.034;3.730;2023-08-01T00:43:47;17.70;99.90
36716;DHT22;22699;51.034;3.730;2023-08-01T00:49:30;17.90;99.90
36716;DHT22;22699;51.034;3.730;2023-08-01T00:52:06;17.90;99.90
36716;DHT22;22699;51.034;3.730;2023-08-01T00:54:38;17.80;99.90
36716;DHT22;22699;51.034;3.730;2023-08-01T00:57:04;17.80;99.90
36716;DHT22;22699;51.034;3.730;2023-08-01T00:59:31;17.80;99.90
36716;DHT22;22699;51.034;3.730;2023-08-01T01:01:58;17.90;99.90
36716;DHT22;22699;51.034;3.730;2023-08-01T01:04:25;17.80;99.90
36716;DHT22;22699;51.034;3.730;2023-08-01T01:06:57;17.90;99.90
36716;DHT22;22699;51.034;3.730;2023-08-01T01:09:28;18.00;99.90
36716;DHT22;22699;51.034;3.730;2023-08-01T01:11:54;17.90;99.90
36716;DHT22;22699;51.034;3.730;2023-08-01T01:14:22;17.90;99.90
36716;DHT22;22699;51.034;3.730;2023-08-01T01:23:19;18.00;99.90
36716;DHT22;22699;51.034;3.730;2023-08-01T01:29:12;18.00;99.90
36716;DHT22;22699;51.034;3.730;2023-08-01T01:38:22;17.40;99.90
36716;DHT22;22699;51.034;3.730;2023-08-01T01:40:56;17.40;99.90
36716;DHT22;22699;51.034;3.730;2023-08-01T01:43:25;17.40;99.90
36716;DHT22;22699;51.034;3.730;2023-08-01T01:49:19;17.50;99.90
36716;DHT22;22699;51.034;3.730;2023-08-01T01:51:45;17.70;99.90
36716;DHT22;22699;51.034;3.730;2023-08-01T01:54:19;17.70;99.90
36716;DHT22;22699;51.034;3.730;2023-08-01T01:56:52;17.90;99.90
36716;DHT22;22699;51.034;3.730;2023-08-01T01:59:37;17.80;99.90
36716;DHT22;22699;51.034;3.730;2023-08-01T02:08:41;17.50;99.90
36716;DHT22;22699;51.034;3.730;2023-08-01T02:11:16;17.40;99.90
36716;DHT22;22699;51.034;3.730;2023-08-01T02:13:48;17.20;99.90
36716;DHT22;22699;51.034;3.730;2023-08-01T02:16:48;17.40;99.90
36716;DHT22;22699;51.034;3.730;2023-08-01T02:19:27;17.50;99.90
36716;DHT22;22699;51.034;3.730;2023-08-01T02:22:06;17.40;99.90
36716;DHT22;22699;51.034;3.730;2023-08-01T02:25:06;17.50;99.90
36716;DHT22;22699;51.034;3.730;2023-08-01T02:31:17;17.40;99.90
36716;DHT22;22699;51.034;3.730;2023-08-01T02:34:20;17.40;99.90
36716;DHT22;22699;51.034;3.730;2023-08-01T02:36:47;17.40;99.90
36716;DHT22;22699;51.034;3.730;2023-08-01T02:39:15;17.40;99.90
36716;DHT22;22699;51.034;3.730;2023-08-01T02:41:45;17.30;99.90
36716;DHT22;22699;51.034;3.730;2023-08-01T02:44:15;17.10;99.90
36716;DHT22;22699;51.034;3.730;2023-08-01T02:46:40;17.20;99.90
36716;DHT22;22699;51.034;3.730;2023-08-01T02:49:07;17.20;99.90
36716;DHT22;22699;51.034;3.730;2023-08-01T02:51:32;17.10;99.90
36716;DHT22;22699;51.034;3.730;2023-08-01T02:54:00;17.20;99.90
36716;DHT22;22699;51.034;3.730;2023-08-01T02:56:35;17.30;99.90
36716;DHT22;22699;51.034;3.730;2023-08-01T02:59:24;17.20;99.90
36716;DHT22;22699;51.034;3.730;2023-08-01T03:01:52;17.30;99.90
36716;DHT22;22699;51.034;3.730;2023-08-01T03:04:18;17.20;99.90
36716;DHT22;22699;51.034;3.730;2023-08-01T03:06:51;17.30;99.90
36716;DHT22;22699;51.034;3.730;2023-08-01T03:09:19;17.20;99.90
36716;DHT22;22699;51.034;3.730;2023-08-01T03:11:47;17.20;99.90
36716;DHT22;22699;51.034;3.730;2023-08-01T03:14:12;17.30;99.90
36716;DHT22;22699;51.034;3.730;2023-08-01T03:16:38;17.10;99.90
36716;DHT22;22699;51.034;3.730;2023-08-01T03:19:04;17.10;99.90
36716;DHT22;22699;51.034;3.730;2023-08-01T03:21:34;16.90;99.90
36716;DHT22;22699;51.034;3.730;2023-08-01T03:24:03;17.00;99.90
36716;DHT22;22699;51.034;3.730;2023-08-01T03:26:28;17.10;99.90
36716;DHT22;22699;51.034;3.730;2023-08-01T03:29:01;17.00;99.90
36716;DHT22;22699;51.034;3.730;2023-08-01T03:31:32;17.00;99.90
36716;DHT22;22699;51.034;3.730;2023-08-01T03:34:10;17.10;99.90
36716;DHT22;22699;51.034;3.730;2023-08-01T03:36:40;17.00;99.90
36716;DHT22;22699;51.034;3.730;2023-08-01T03:39:07;17.10;99.90
36716;DHT22;22699;51.034;3.730;2023-08-01T03:41:37;17.10;99.90
36716;DHT22;22699;51.034;3.730;2023-08-01T03:44:03;17.30;99.90
36716;DHT22;22699;51.034;3.730;2023-08-01T03:46:36;17.50;99.90
36716;DHT22;22699;51.034;3.730;2023-08-01T03:49:03;17.60;99.90
36716;DHT22;22699;51.034;3.730;2023-08-01T03:51:28;17.70;99.90
36716;DHT22;22699;51.034;3.730;2023-08-01T03:53:59;17.60;99.90
36716;DHT22;22699;51.034;3.730;2023-08-01T03:56:25;17.60;99.90
36716;DHT22;22699;51.034;3.730;2023-08-01T03:58:52;17.60;99.90
36716;DHT22;22699;51.034;3.730;2023-08-01T04:01:19;17.60;99.90
36716;DHT22;22699;51.034;3.730;2023-08-01T04:03:46;17.50;99.90
36716;DHT22;22699;51.034;3.730;2023-08-01T04:06:11;17.40;99.90
36716;DHT22;22699;51.034;3.730;2023-08-01T04:08:40;17.20;99.90
36716;DHT22;22699;51.034;3.730;2023-08-01T04:11:06;17.10;99.90
36716;DHT22;22699;51.034;3.730;2023-08-01T04:13:32;17.00;99.90
36716;DHT22;22699;51.034;3.730;2023-08-01T04:16:15;17.00;99.90
36716;DHT22;22699;51.034;3.730;2023-08-01T04:18:45;17.00;99.90
36716;DHT22;22699;51.034;3.730;2023-08-01T04:21:15;17.20;99.90
36716;DHT22;22699;51.034;3.730;2023-08-01T04:23:41;17.20;99.90
36716;DHT22;22699;51.034;3.730;2023-08-01T04:26:12;17.20;99.90
36716;DHT22;22699;51.034;3.730;2023-08-01T04:28:50;17.20;99.90
36716;DHT22;22699;51.034;3.730;2023-08-01T04:31:17;17.10;99.90
36716;DHT22;22699;51.034;3.730;2023-08-01T04:33:45;17.20;99.90
36716;DHT22;22699;51.034;3.730;2023-08-01T04:36:13;17.30;99.90
36716;DHT22;22699;51.034;3.730;2023-08-01T04:38:39;17.20;99.90
36716;DHT22;22699;51.034;3.730;2023-08-01T04:41:09;17.10;99.90
36716;DHT22;22699;51.034;3.730;2023-08-01T04:43:38;17.10;99.90
36716;DHT22;22699;51.034;3.730;2023-08-01T04:46:20;17.10;99.90
36716;DHT22;22699;51.034;3.730;2023-08-01T04:48:54;17.30;99.90
36716;DHT22;22699;51.034;3.730;2023-08-01T04:51:24;17.30;99.90
36716;DHT22;22699;51.034;3.730;2023-08-01T04:53:53;17.30;99.90
36716;DHT22;22699;51.034;3.730;2023-08-01T04:56:20;17.30;99.90
36716;DHT22;22699;51.034;3.730;2023-08-01T04:58:58;17.30;99.90
36716;DHT22;22699;51.034;3.730;2023-08-01T05:01:24;17.30;99.90
36716;DHT22;22699;51.034;3.730;2023-08-01T05:03:50;17.30;99.90
36716;DHT22;22699;51.034;3.730;2023-08-01T05:06:28;17.20;99.90
36716;DHT22;22699;51.034;3.730;2023-08-01T05:09:12;17.20;99.90
36716;DHT22;22699;51.034;3.730;2023-08-01T05:11:42;17.20;99.90
36716;DHT22;22699;51.034;3.730;2023-08-01T05:14:13;17.40;99.90
36716;DHT22;22699;51.034;3.730;2023-08-01T05:16:39;17.30;99.90
36716;DHT22;22699;51.034;3.730;2023-08-01T05:19:10;17.40;99.90
36716;DHT22;22699;51.034;3.730;2023-08-01T05:22:05;17.40;99.90
36716;DHT22;22699;51.034;3.730;2023-08-01T05:24:36;17.40;99.90
36716;DHT22;22699;51.034;3.730;2023-08-01T05:27:03;17.50;99.90
36716;DHT22;22699;51.034;3.730;2023-08-01T05:29:32;17.30;99.90
36716;DHT22;22699;51.034;3.730;2023-08-01T05:31:58;17.30;99.90
36716;DHT22;22699;51.034;3.730;2023-08-01T05:34:27;17.20;99.90
36716;DHT22;22699;51.034;3.730;2023-08-01T05:36:55;17.30;99.90
36716;DHT22;22699;51.034;3.730;2023-08-01T05:39:26;17.20;99.90
36716;DHT22;22699;51.034;3.730;2023-08-01T05:41:52;17.10;99.90
36716;DHT22;22699;51.034;3.730;2023-08-01T05:44:19;17.20;99.90
36716;DHT22;22699;51.034;3.730;2023-08-01T05:46:46;17.30;99.90
36716;DHT22;22699;51.034;3.730;2023-08-01T05:49:12;17.40;99.90
36716;DHT22;22699;51.034;3.730;2023-08-01T05:51:38;17.40;99.90
36716;DHT22;22699;51.034;3.730;2023-08-01T05:54:14;17.30;99.90
36716;DHT22;22699;51.034;3.730;2023-08-01T05:57:01;17.30;99.90
36716;DHT22;22699;51.034;3.730;2023-08-01T05:59:32;17.30;99.90
36716;DHT22;22699;51.034;3.730;2023-08-01T06:01:59;17.30;99.90
36716;DHT22;22699;51.034;3.730;2023-08-01T06:04:29;17.50;99.90
36716;DHT22;22699;51.034;3.730;2023-08-01T06:06:58;17.30;99.90
36716;DHT22;22699;51.034;3.730;2023-08-01T06:09:25;17.40;99.90
36716;DHT22;22699;51.034;3.730;2023-08-01T06:12:19;17.50;99.90
36716;DHT22;22699;51.034;3.730;2023-08-01T06:14:47;17.70;99.90
36716;DHT22;22699;51.034;3.730;2023-08-01T06:17:24;17.60;99.90
36716;DHT22;22699;51.034;3.730;2023-08-01T06:19:51;17.60;99.90
36716;DHT22;22699;51.034;3.730;2023-08-01T06:22:21;17.70;99.90
36716;DHT22;22699;51.034;3.730;2023-08-01T06:24:50;17.70;99.90
36716;DHT22;22699;51.034;3.730;2023-08-01T06:27:21;17.90;99.90
36716;DHT22;22699;51.034;3.730;2023-08-01T06:29:54;17.90;99.90
36716;DHT22;22699;51.034;3.730;2023-08-01T06:32:25;17.90;99.90
36716;DHT22;22699;51.034;3.730;2023-08-01T06:34:50;18.10;99.90
36716;DHT22;22699;51.034;3.730;2023-08-01T06:37:17;18.40;99.90
36716;DHT22;22699;51.034;3.730;2023-08-01T06:39:43;18.60;99.90
36716;DHT22;22699;51.034;3.730;2023-08-01T06:42:11;18.60;99.90
36716;DHT22;22699;51.034;3.730;2023-08-01T06:44:37;18.70;99.90
36716;DHT22;22699;51.034;3.730;2023-08-01T06:47:04;18.70;99.90
36716;DHT22;22699;51.034;3.730;2023-08-01T06:49:31;19.00;99.90
36716;DHT22;22699;51.034;3.730;2023-08-01T06:52:00;19.40;99.90
36716;DHT22;22699;51.034;3.730;2023-08-01T06:54:28;19.60;99.90
36716;DHT22;22699;51.034;3.730;2023-08-01T06:56:55;19.90;99.90
36716;DHT22;22699;51.034;3.730;2023-08-01T06:59:20;19.70;99.90
36716;DHT22;22699;51.034;3.730;2023-08-01T07:01:48;19.50;99.90
36716;DHT22;22699;51.034;3.730;2023-08-01T07:04:14;19.60;99.90
36716;DHT22;22699;51.034;3.730;2023-08-01T07:06:40;19.70;99.90
36716;DHT22;22699;51.034;3.730;2023-08-01T07:09:12;19.90;99.90
36716;DHT22;22699;51.034;3.730;2023-08-01T07:11:38;20.10;99.90
36716;DHT22;22699;51.034;3.730;2023-08-01T07:14:09;20.20;99.90
36716;DHT22;22699;51.034;3.730;2023-08-01T07:16:36;20.30;99.90
36716;DHT22;22699;51.034;3.730;2023-08-01T07:19:09;19.80;99.90
36716;DHT22;22699;51.034;3.730;2023-08-01T07:21:34;19.60;99.90
36716;DHT22;22699;51.034;3.730;2023-08-01T07:24:04;19.50;99.90
36716;DHT22;22699;51.034;3.730;2023-08-01T07:26:31;19.20;99.90
36716;DHT22;22699;51.034;3.730;2023-08-01T07:28:59;19.80;99.90
36716;DHT22;22699;51.034;3.730;2023-08-01T07:31:25;20.20;99.90
36716;DHT22;22699;51.034;3.730;2023-08-01T07:33:59;20.40;99.90
36716;DHT22;22699;51.034;3.730;2023-08-01T07:36:26;20.50;99.90
36716;DHT22;22699;51.034;3.730;2023-08-01T07:38:53;20.80;99.90
36716;DHT22;22699;51.034;3.730;2023-08-01T07:41:19;22.90;99.90
36716;DHT22;22699;51.034;3.730;2023-08-01T07:43:45;23.70;99.90
36716;DHT22;22699;51.034;3.730;2023-08-01T07:46:10;23.20;99.90
36716;DHT22;22699;51.034;3.730;2023-08-01T07:48:37;23.00;99.90
36716;DHT22;22699;51.034;3.730;2023-08-01T07:51:03;22.60;99.90
36716;DHT22;22699;51.034;3.730;2023-08-01T07:53:31;23.30;99.90
36716;DHT22;22699;51.034;3.730;2023-08-01T07:55:56;23.80;98.60
36716;DHT22;22699;51.034;3.730;2023-08-01T07:58:22;25.50;95.60
36716;DHT22;22699;51.034;3.730;2023-08-01T08:00:48;26.30;93.90
36716;DHT22;22699;51.034;3.730;2023-08-01T08:03:14;25.20;93.70
36716;DHT22;22699;51.034;3.730;2023-08-01T08:05:39;24.40;94.90
36716;DHT22;22699;51.034;3.730;2023-08-01T08:08:06;24.90;94.90
36716;DHT22;22699;51.034;3.730;2023-08-01T08:10:32;26.90;92.20
36716;DHT22;22699;51.034;3.730;2023-08-01T08:12:57;27.70;88.00
36716;DHT22;22699;51.034;3.730;2023-08-01T08:15:23;27.60;87.00
36716;DHT22;22699;51.034;3.730;2023-08-01T08:17:50;26.20;90.10
36716;DHT22;22699;51.034;3.730;2023-08-01T08:20:15;25.40;91.20
36716;DHT22;22699;51.034;3.730;2023-08-01T08:22:41;25.20;92.80
36716;DHT22;22699;51.034;3.730;2023-08-01T08:25:07;28.40;88.40
36716;DHT22;22699;51.034;3.730;2023-08-01T08:27:32;29.20;83.30
36716;DHT22;22699;51.034;3.730;2023-08-01T08:29:58;29.30;81.20
36716;DHT22;22699;51.034;3.730;2023-08-01T08:32:23;28.00;83.30
36716;DHT22;22699;51.034;3.730;2023-08-01T08:34:49;28.20;82.20
36716;DHT22;22699;51.034;3.730;2023-08-01T08:37:14;29.70;80.00
36716;DHT22;22699;51.034;3.730;2023-08-01T08:39:40;31.50;74.60
36716;DHT22;22699;51.034;3.730;2023-08-01T08:42:07;32.60;72.20
36716;DHT22;22699;51.034;3.730;2023-08-01T08:44:35;31.40;70.50
36716;DHT22;22699;51.034;3.730;2023-08-01T08:47:05;31.90;70.30
36716;DHT22;22699;51.034;3.730;2023-08-01T08:49:32;32.70;68.00
36716;DHT22;22699;51.034;3.730;2023-08-01T08:51:58;31.90;67.90
36716;DHT22;22699;51.034;3.730;2023-08-01T08:54:24;30.10;71.20
36716;DHT22;22699;51.034;3.730;2023-08-01T08:56:51;28.10;76.40
36716;DHT22;22699;51.034;3.730;2023-08-01T08:59:18;26.20;83.20
36716;DHT22;22699;51.034;3.730;2023-08-01T09:01:45;25.60;87.90
36716;DHT22;22699;51.034;3.730;2023-08-01T09:04:11;28.30;86.00
36716;DHT22;22699;51.034;3.730;2023-08-01T09:06:49;31.60;75.00
36716;DHT22;22699;51.034;3.730;2023-08-01T09:09:15;35.40;66.80
36716;DHT22;22699;51.034;3.730;2023-08-01T09:11:45;38.90;60.20
36716;DHT22;22699;51.034;3.730;2023-08-01T09:14:10;41.50;54.20
36716;DHT22;22699;51.034;3.730;2023-08-01T09:16:39;44.30;49.40
36716;DHT22;22699;51.034;3.730;2023-08-01T09:19:06;43.50;46.00
36716;DHT22;22699;51.034;3.730;2023-08-01T09:21:34;40.40;47.60
36716;DHT22;22699;51.034;3.730;2023-08-01T09:24:14;41.30;49.00
36716;DHT22;22699;51.034;3.730;2023-08-01T09:26:40;42.50;46.90
36716;DHT22;22699;51.034;3.730;2023-08-01T09:29:06;44.00;44.60
36716;DHT22;22699;51.034;3.730;2023-08-01T09:31:33;42.80;44.50
36716;DHT22;22699;51.034;3.730;2023-08-01T09:34:00;39.10;47.20
36716;DHT22;22699;51.034;3.730;2023-08-01T09:36:26;36.40;50.40
36716;DHT22;22699;51.034;3.730;2023-08-01T09:38:58;35.00;52.00
36716;DHT22;22699;51.034;3.730;2023-08-01T09:41:25;32.80;54.00
36716;DHT22;22699;51.034;3.730;2023-08-01T09:43:50;31.10;57.30
36716;DHT22;22699;51.034;3.730;2023-08-01T09:46:16;29.70;58.10
36716;DHT22;22699;51.034;3.730;2023-08-01T09:48:42;29.00;59.80
36716;DHT22;22699;51.034;3.730;2023-08-01T09:51:14;27.60;62.00
36716;DHT22;22699;51.034;3.730;2023-08-01T09:53:54;27.40;64.00
36716;DHT22;22699;51.034;3.730;2023-08-01T09:56:22;27.50;64.00
36716;DHT22;22699;51.034;3.730;2023-08-01T09:58:49;27.20;64.40
36716;DHT22;22699;51.034;3.730;2023-08-01T10:01:16;26.40;66.50
36716;DHT22;22699;51.034;3.730;2023-08-01T10:03:48;26.00;68.00
36716;DHT22;22699;51.034;3.730;2023-08-01T10:06:20;25.70;69.60
36716;DHT22;22699;51.034;3.730;2023-08-01T10:08:47;25.30;69.10
36716;DHT22;22699;51.034;3.730;2023-08-01T10:11:16;25.20;70.10
36716;DHT22;22699;51.034;3.730;2023-08-01T10:13:43;25.60;69.30
36716;DHT22;22699;51.034;3.730;2023-08-01T10:16:10;25.60;68.10
36716;DHT22;22699;51.034;3.730;2023-08-01T10:18:38;25.60;68.80
36716;DHT22;22699;51.034;3.730;2023-08-01T10:21:08;24.90;69.70
36716;DHT22;22699;51.034;3.730;2023-08-01T10:23:35;24.20;72.30
36716;DHT22;22699;51.034;3.730;2023-08-01T10:26:06;23.80;74.00
36716;DHT22;22699;51.034;3.730;2023-08-01T10:28:33;24.00;74.30
36716;DHT22;22699;51.034;3.730;2023-08-01T10:31:16;24.20;73.60
36716;DHT22;22699;51.034;3.730;2023-08-01T10:33:45;23.80;73.70
36716;DHT22;22699;51.034;3.730;2023-08-01T10:38:53;23.90;75.40
36716;DHT22;22699;51.034;3.730;2023-08-01T10:41:29;23.90;74.30
36716;DHT22;22699;51.034;3.730;2023-08-01T10:46:55;24.20;72.40
36716;DHT22;22699;51.034;3.730;2023-08-01T10:49:32;24.50;71.80
36716;DHT22;22699;51.034;3.730;2023-08-01T10:51:59;25.10;71.40
36716;DHT22;22699;51.034;3.730;2023-08-01T10:54:25;25.30;69.20
36716;DHT22;22699;51.034;3.730;2023-08-01T10:56:53;25.10;69.10
36716;DHT22;22699;51.034;3.730;2023-08-01T10:59:19;25.10;70.10
36716;DHT22;22699;51.034;3.730;2023-08-01T11:01:51;25.10;71.00
36716;DHT22;22699;51.034;3.730;2023-08-01T11:04:21;25.30;69.30
36716;DHT22;22699;51.034;3.730;2023-08-01T11:06:53;25.30;69.50
36716;DHT22;22699;51.034;3.730;2023-08-01T11:09:27;25.20;69.20
36716;DHT22;22699;51.034;3.730;2023-08-01T11:11:55;25.00;69.70
36716;DHT22;22699;51.034;3.730;2023-08-01T11:14:23;24.90;70.30
36716;DHT22;22699;51.034;3.730;2023-08-01T11:16:50;24.90;71.50
36716;DHT22;22699;51.034;3.730;2023-08-01T11:19:33;24.70;68.40
36716;DHT22;22699;51.034;3.730;2023-08-01T11:22:09;24.30;69.10
36716;DHT22;22699;51.034;3.730;2023-08-01T11:24:35;24.30;70.70
36716;DHT22;22699;51.034;3.730;2023-08-01T11:27:01;24.00;71.90
36716;DHT22;22699;51.034;3.730;2023-08-01T11:29:27;23.70;72.30
36716;DHT22;22699;51.034;3.730;2023-08-01T11:31:58;23.60;71.40
36716;DHT22;22699;51.034;3.730;2023-08-01T11:34:24;23.50;71.60
36716;DHT22;22699;51.034;3.730;2023-08-01T11:36:50;23.60;72.40
36716;DHT22;22699;51.034;3.730;2023-08-01T11:39:17;23.70;73.00
36716;DHT22;22699;51.034;3.730;2023-08-01T11:41:43;24.00;72.30
36716;DHT22;22699;51.034;3.730;2023-08-01T11:44:09;23.90;73.30
36716;DHT22;22699;51.034;3.730;2023-08-01T11:46:37;23.90;73.90
36716;DHT22;22699;51.034;3.730;2023-08-01T11:49:05;24.10;73.90
36716;DHT22;22699;51.034;3.730;2023-08-01T11:51:39;24.30;71.40
36716;DHT22;22699;51.034;3.730;2023-08-01T11:54:05;24.60;70.40
36716;DHT22;22699;51.034;3.730;2023-08-01T11:56:33;25.00;69.60
36716;DHT22;22699;51.034;3.730;2023-08-01T11:58:59;24.80;70.60
36716;DHT22;22699;51.034;3.730;2023-08-01T12:01:25;24.80;70.20
36716;DHT22;22699;51.034;3.730;2023-08-01T12:03:53;24.80;70.20
36716;DHT22;22699;51.034;3.730;2023-08-01T12:06:21;24.10;72.00
36716;DHT22;22699;51.034;3.730;2023-08-01T12:08:48;24.10;72.40
36716;DHT22;22699;51.034;3.730;2023-08-01T12:11:25;24.20;72.50
36716;DHT22;22699;51.034;3.730;2023-08-01T12:14:12;24.30;72.80
36716;DHT22;22699;51.034;3.730;2023-08-01T12:16:41;24.10;73.20
36716;DHT22;22699;51.034;3.730;2023-08-01T12:19:27;23.60;75.10
36716;DHT22;22699;51.034;3.730;2023-08-01T12:21:59;23.60;75.40
36716;DHT22;22699;51.034;3.730;2023-08-01T12:24:24;23.40;74.90
36716;DHT22;22699;51.034;3.730;2023-08-01T12:26:50;23.70;74.20
36716;DHT22;22699;51.034;3.730;2023-08-01T12:29:16;24.00;73.80
36716;DHT22;22699;51.034;3.730;2023-08-01T12:31:41;24.10;73.80
36716;DHT22;22699;51.034;3.730;2023-08-01T12:34:07;24.30;73.70
36716;DHT22;22699;51.034;3.730;2023-08-01T12:36:33;23.90;74.30
36716;DHT22;22699;51.034;3.730;2023-08-01T12:38:59;23.90;73.80
36716;DHT22;22699;51.034;3.730;2023-08-01T12:41:24;23.70;74.90
36716;DHT22;22699;51.034;3.730;2023-08-01T12:43:51;23.70;75.20
36716;DHT22;22699;51.034;3.730;2023-08-01T12:46:17;23.70;75.50
36716;DHT22;22699;51.034;3.730;2023-08-01T12:48:43;23.90;75.20
36716;DHT22;22699;51.034;3.730;2023-08-01T12:51:09;23.90;75.40
36716;DHT22;22699;51.034;3.730;2023-08-01T12:53:35;23.40;77.30
36716;DHT22;22699;51.034;3.730;2023-08-01T12:56:00;23.50;77.60
36716;DHT22;22699;51.034;3.730;2023-08-01T12:58:26;23.80;76.80
36716;DHT22;22699;51.034;3.730;2023-08-01T13:00:53;24.10;76.20
36716;DHT22;22699;51.034;3.730;2023-08-01T13:03:19;24.10;76.00
36716;DHT22;22699;51.034;3.730;2023-08-01T13:05:46;24.20;76.20
36716;DHT22;22699;51.034;3.730;2023-08-01T13:08:12;24.10;76.30
36716;DHT22;22699;51.034;3.730;2023-08-01T13:10:39;24.10;76.00
36716;DHT22;22699;51.034;3.730;2023-08-01T13:13:06;24.20;76.20
36716;DHT22;22699;51.034;3.730;2023-08-01T13:15:32;24.40;74.70
36716;DHT22;22699;51.034;3.730;2023-08-01T13:17:58;24.30;73.90
36716;DHT22;22699;51.034;3.730;2023-08-01T13:20:23;23.70;76.70
36716;DHT22;22699;51.034;3.730;2023-08-01T13:22:50;23.50;77.00
36716;DHT22;22699;51.034;3.730;2023-08-01T13:25:17;23.30;75.80
36716;DHT22;22699;51.034;3.730;2023-08-01T13:27:43;23.10;76.50
36716;DHT22;22699;51.034;3.730;2023-08-01T13:30:09;22.90;78.60
36716;DHT22;22699;51.034;3.730;2023-08-01T13:32:36;22.70;82.40
36716;DHT22;22699;51.034;3.730;2023-08-01T13:35:03;22.70;85.50
36716;DHT22;22699;51.034;3.730;2023-08-01T13:37:29;22.50;86.50
36716;DHT22;22699;51.034;3.730;2023-08-01T13:39:59;22.40;88.00
36716;DHT22;22699;51.034;3.730;2023-08-01T13:42:26;22.40;86.90
36716;DHT22;22699;51.034;3.730;2023-08-01T13:44:54;22.40;88.00
36716;DHT22;22699;51.034;3.730;2023-08-01T13:47:19;22.40;87.50
36716;DHT22;22699;51.034;3.730;2023-08-01T13:49:45;22.40;87.70
36716;DHT22;22699;51.034;3.730;2023-08-01T13:52:10;22.50;87.10
36716;DHT22;22699;51.034;3.730;2023-08-01T13:54:36;22.40;87.30
36716;DHT22;22699;51.034;3.730;2023-08-01T13:57:02;22.40;86.30
36716;DHT22;22699;51.034;3.730;2023-08-01T13:59:27;22.30;86.30
36716;DHT22;22699;51.034;3.730;2023-08-01T14:01:53;22.30;86.90
36716;DHT22;22699;51.034;3.730;2023-08-01T14:04:20;22.30;86.90
36716;DHT22;22699;51.034;3.730;2023-08-01T14:06:46;22.20;87.60
36716;DHT22;22699;51.034;3.730;2023-08-01T14:09:12;22.10;88.00
36716;DHT22;22699;51.034;3.730;2023-08-01T14:11:38;22.20;87.90
36716;DHT22;22699;51.034;3.730;2023-08-01T14:14:05;22.30;87.80
36716;DHT22;22699;51.034;3.730;2023-08-01T14:16:32;22.60;86.90
36716;DHT22;22699;51.034;3.730;2023-08-01T14:19:01;22.80;85.90
36716;DHT22;22699;51.034;3.730;2023-08-01T14:21:26;22.90;84.40
36716;DHT22;22699;51.034;3.730;2023-08-01T14:23:52;23.10;84.20
36716;DHT22;22699;51.034;3.730;2023-08-01T14:26:18;23.10;83.70
36716;DHT22;22699;51.034;3.730;2023-08-01T14:28:43;23.00;83.70
36716;DHT22;22699;51.034;3.730;2023-08-01T14:31:09;23.20;83.10
36716;DHT22;22699;51.034;3.730;2023-08-01T14:33:36;23.30;82.70
36716;DHT22;22699;51.034;3.730;2023-08-01T14:36:02;23.20;83.20
36716;DHT22;22699;51.034;3.730;2023-08-01T14:38:32;23.10;83.40
36716;DHT22;22699;51.034;3.730;2023-08-01T14:40:57;23.20;82.90
36716;DHT22;22699;51.034;3.730;2023-08-01T14:43:23;22.90;83.40
36716;DHT22;22699;51.034;3.730;2023-08-01T14:45:49;22.80;83.90
36716;DHT22;22699;51.034;3.730;2023-08-01T14:48:14;22.70;84.00
36716;DHT22;22699;51.034;3.730;2023-08-01T14:50:41;22.70;84.20
36716;DHT22;22699;51.034;3.730;2023-08-01T14:53:08;22.90;83.60
36716;DHT22;22699;51.034;3.730;2023-08-01T14:55:34;22.70;83.80
36716;DHT22;22699;51.034;3.730;2023-08-01T14:58:00;22.60;84.60
36716;DHT22;22699;51.034;3.730;2023-08-01T15:00:26;22.70;84.00
36716;DHT22;22699;51.034;3.730;2023-08-01T15:02:51;22.70;84.20
36716;DHT22;22699;51.034;3.730;2023-08-01T15:05:17;22.40;84.90
36716;DHT22;22699;51.034;3.730;2023-08-01T15:07:43;22.40;84.80
36716;DHT22;22699;51.034;3.730;2023-08-01T15:10:09;22.50;84.60
36716;DHT22;22699;51.034;3.730;2023-08-01T15:12:35;22.20;85.40
36716;DHT22;22699;51.034;3.730;2023-08-01T15:15:00;22.20;86.20
36716;DHT22;22699;51.034;3.730;2023-08-01T15:17:27;22.10;86.40
36716;DHT22;22699;51.034;3.730;2023-08-01T15:19:53;22.20;86.30
36716;DHT22;22699;51.034;3.730;2023-08-01T15:22:20;22.20;86.40
36716;DHT22;22699;51.034;3.730;2023-08-01T15:24:46;22.20;86.30
36716;DHT22;22699;51.034;3.730;2023-08-01T15:27:12;22.20;85.90
36716;DHT22;22699;51.034;3.730;2023-08-01T15:29:38;22.40;85.60
36716;DHT22;22699;51.034;3.730;2023-08-01T15:32:04;22.30;86.10
36716;DHT22;22699;51.034;3.730;2023-08-01T15:34:30;22.30;87.10
36716;DHT22;22699;51.034;3.730;2023-08-01T15:36:56;22.30;88.00
36716;DHT22;22699;51.034;3.730;2023-08-01T15:39:21;22.30;87.30
36716;DHT22;22699;51.034;3.730;2023-08-01T15:41:47;22.40;86.40
36716;DHT22;22699;51.034;3.730;2023-08-01T15:44:14;22.30;87.00
36716;DHT22;22699;51.034;3.730;2023-08-01T15:46:39;22.20;88.00
36716;DHT22;22699;51.034;3.730;2023-08-01T15:49:05;22.30;88.30
36716;DHT22;22699;51.034;3.730;2023-08-01T15:51:32;22.40;88.00
36716;DHT22;22699;51.034;3.730;2023-08-01T15:53:57;22.30;88.90
36716;DHT22;22699;51.034;3.730;2023-08-01T15:56:23;22.20;89.20
36716;DHT22;22699;51.034;3.730;2023-08-01T15:58:49;22.20;89.30
36716;DHT22;22699;51.034;3.730;2023-08-01T16:01:15;22.00;89.80
36716;DHT22;22699;51.034;3.730;2023-08-01T16:03:43;21.90;90.10
36716;DHT22;22699;51.034;3.730;2023-08-01T16:06:09;22.00;89.90
36716;DHT22;22699;51.034;3.730;2023-08-01T16:08:35;21.90;90.00
36716;DHT22;22699;51.034;3.730;2023-08-01T16:11:01;21.90;90.00
36716;DHT22;22699;51.034;3.730;2023-08-01T16:13:28;21.80;90.30
36716;DHT22;22699;51.034;3.730;2023-08-01T16:15:54;21.70;90.70
36716;DHT22;22699;51.034;3.730;2023-08-01T16:18:19;21.70;90.90
36716;DHT22;22699;51.034;3.730;2023-08-01T16:20:46;21.70;91.20